This is the latest recevied weather packets stored in our database for station/object KB1RMA-13. If no packets are shown the sender has not sent any weather packets the latest 1 day(s).
| Time | Temp. | Humidity | Pressure | Rain* | Wind** | Luminosity | Snow |
|---|---|---|---|---|---|---|---|
| 1778076992 | 20.56° C | 69% | 1008.5 hPa | 0 mm | - | 371 W/m² | - |
| 1778076388 | 20° C | 70% | 1008.6 hPa | 0 mm | - | 266 W/m² | - |
| 1778076085 | 20° C | 70% | 1008.6 hPa | 0 mm | - | 310 W/m² | - |
| 1778075478 | 19.44° C | 72% | 1008.6 hPa | 0 mm | - | 232 W/m² | - |
| 1778073659 | 18.89° C | 74% | 1008.8 hPa | 0 mm | - | 224 W/m² | - |
| 1778071238 | 17.78° C | 77% | 1009.2 hPa | 0 mm | - | 156 W/m² | - |
| 1778070028 | 17.78° C | 77% | 1009.1 hPa | 0 mm | - | 209 W/m² | - |
| 1778068213 | 17.22° C | 79% | 1009.3 hPa | 0 mm | - | 145 W/m² | - |
| 1778065185 | 16.67° C | 80% | 1009.4 hPa | 0 mm | - | 70 W/m² | - |
| 1778064882 | 16.67° C | 81% | 1009.1 hPa | 0 mm | - | 44 W/m² | - |
| 1778063369 | 16.67° C | 80% | 1009.5 hPa | 0 mm | - | 29 W/m² | - |
| 1778062764 | 16.67° C | 80% | 1009.2 hPa | 0 mm | - | 25 W/m² | - |
| 1778062460 | 16.67° C | 80% | 1009.4 hPa | 0 mm | - | 30 W/m² | - |
| 1778062158 | 16.67° C | 80% | 1009.6 hPa | 0 mm | - | 29 W/m² | - |
| 1778061856 | 16.67° C | 80% | 1009.2 hPa | 0 mm | - | 30 W/m² | - |
| 1778061554 | 16.11° C | 80% | 1009.1 hPa | 0 mm | - | 33 W/m² | - |
| 1778061252 | 16.11° C | 80% | 1009 hPa | 0 mm | - | 26 W/m² | - |
| 1778060948 | 16.11° C | 80% | 1009.2 hPa | 0 mm | - | 21 W/m² | - |
| 1778060647 | 16.11° C | 80% | 1009.2 hPa | 0 mm | - | 13 W/m² | - |
| 1778060344 | 16.11° C | 80% | 1009.3 hPa | 0 mm | - | 7 W/m² | - |
| 1778059739 | 16.11° C | 80% | 1009.1 hPa | 0 mm | - | 2 W/m² | - |
| 1778059437 | 16.11° C | 79% | 1009.2 hPa | 0 mm | - | 1 W/m² | - |
| 1778059133 | 16.11° C | 79% | 1008.9 hPa | 0 mm | - | 0 W/m² | - |
| 1778058528 | 16.11° C | 79% | 1008.8 hPa | 0 mm | - | 0 W/m² | - |
| 1778058226 | 16.11° C | 78% | 1009 hPa | 0 mm | - | 0 W/m² | - |
* Rain latest hour (hover to see other rain measurements)
** Current wind speed in m/s (hover to see current wind gust speed)